sensor_id;sensor_type;location;lat;lon;timestamp;pressure;altitude;pressure_sealevel;temperature;humidity
18850;BME280;4989;48.772;9.154;2022-07-23T00:04:07;97962.41;;;25.99;55.53
18850;BME280;4989;48.772;9.154;2022-07-23T00:09:10;97966.94;;;25.83;57.16
18850;BME280;4989;48.772;9.154;2022-07-23T00:14:12;97948.22;;;25.78;56.88
18850;BME280;4989;48.772;9.154;2022-07-23T00:19:14;97949.44;;;25.64;57.25
18850;BME280;4989;48.772;9.154;2022-07-23T00:24:16;97947.72;;;25.61;57.66
18850;BME280;4989;48.772;9.154;2022-07-23T00:29:18;97946.41;;;25.43;58.38
18850;BME280;4989;48.772;9.154;2022-07-23T00:34:20;97944.19;;;25.35;59.01
18850;BME280;4989;48.772;9.154;2022-07-23T00:39:22;97944.84;;;25.23;61.86
18850;BME280;4989;48.772;9.154;2022-07-23T00:44:27;97931.44;;;24.72;67.67
18850;BME280;4989;48.772;9.154;2022-07-23T00:49:30;97895.34;;;24.36;69.53
18850;BME280;4989;48.772;9.154;2022-07-23T00:54:32;97902.28;;;24.18;71.31
18850;BME280;4989;48.772;9.154;2022-07-23T00:59:34;97917.81;;;24.03;70.45
18850;BME280;4989;48.772;9.154;2022-07-23T01:04:36;97926.22;;;23.86;70.74
18850;BME280;4989;48.772;9.154;2022-07-23T01:09:39;97919.09;;;23.96;70.83
18850;BME280;4989;48.772;9.154;2022-07-23T01:14:42;97922.13;;;23.98;69.28
18850;BME280;4989;48.772;9.154;2022-07-23T01:19:44;97866.28;;;24.02;68.81
18850;BME280;4989;48.772;9.154;2022-07-23T01:24:46;97877.19;;;23.99;69.72
18850;BME280;4989;48.772;9.154;2022-07-23T01:29:51;97904.31;;;23.82;70.23
18850;BME280;4989;48.772;9.154;2022-07-23T01:34:58;97865.75;;;23.67;71.34
18850;BME280;4989;48.772;9.154;2022-07-23T01:40:00;97847.56;;;24.38;70.41
18850;BME280;4989;48.772;9.154;2022-07-23T01:45:05;97872.16;;;24.58;67.60
18850;BME280;4989;48.772;9.154;2022-07-23T01:50:08;97864.78;;;24.66;68.29
18850;BME280;4989;48.772;9.154;2022-07-23T01:55:20;97854.31;;;25.22;66.81
18850;BME280;4989;48.772;9.154;2022-07-23T02:00:24;97893.44;;;24.80;65.07
18850;BME280;4989;48.772;9.154;2022-07-23T02:05:28;97914.22;;;24.08;69.58
18850;BME280;4989;48.772;9.154;2022-07-23T02:10:36;97900.22;;;24.60;70.21
18850;BME280;4989;48.772;9.154;2022-07-23T02:15:38;97901.69;;;25.35;67.06
18850;BME280;4989;48.772;9.154;2022-07-23T02:20:41;97912.69;;;25.46;66.03
18850;BME280;4989;48.772;9.154;2022-07-23T02:25:44;97936.22;;;24.72;65.82
18850;BME280;4989;48.772;9.154;2022-07-23T02:30:46;97948.00;;;24.83;66.24
18850;BME280;4989;48.772;9.154;2022-07-23T02:35:48;97958.38;;;24.11;69.10
18850;BME280;4989;48.772;9.154;2022-07-23T02:40:52;97977.34;;;24.07;70.64
18850;BME280;4989;48.772;9.154;2022-07-23T02:45:55;97998.09;;;24.00;69.56
18850;BME280;4989;48.772;9.154;2022-07-23T02:50:58;97995.69;;;23.74;71.06
18850;BME280;4989;48.772;9.154;2022-07-23T02:56:07;97993.97;;;23.60;71.91
18850;BME280;4989;48.772;9.154;2022-07-23T03:01:09;98001.50;;;23.65;72.29
18850;BME280;4989;48.772;9.154;2022-07-23T03:06:11;98001.56;;;24.12;70.37
18850;BME280;4989;48.772;9.154;2022-07-23T03:11:14;98010.38;;;24.16;70.00
18850;BME280;4989;48.772;9.154;2022-07-23T03:16:18;98015.63;;;23.79;71.71
18850;BME280;4989;48.772;9.154;2022-07-23T03:21:20;98005.97;;;23.91;70.86
18850;BME280;4989;48.772;9.154;2022-07-23T03:26:22;98009.53;;;24.33;69.25
18850;BME280;4989;48.772;9.154;2022-07-23T03:31:27;97996.72;;;24.90;67.64
18850;BME280;4989;48.772;9.154;2022-07-23T03:36:29;97987.50;;;24.76;66.13
18850;BME280;4989;48.772;9.154;2022-07-23T03:41:33;97986.13;;;24.58;69.01
18850;BME280;4989;48.772;9.154;2022-07-23T03:46:35;97986.38;;;25.21;65.77
18850;BME280;4989;48.772;9.154;2022-07-23T03:51:37;97990.22;;;24.52;66.44
18850;BME280;4989;48.772;9.154;2022-07-23T03:56:39;97992.00;;;24.08;68.34
18850;BME280;4989;48.772;9.154;2022-07-23T04:01:42;97999.03;;;24.14;70.35
18850;BME280;4989;48.772;9.154;2022-07-23T04:06:44;98007.22;;;24.78;66.90
18850;BME280;4989;48.772;9.154;2022-07-23T04:11:46;98009.19;;;25.13;64.61
18850;BME280;4989;48.772;9.154;2022-07-23T04:16:48;98005.66;;;24.47;66.21
18850;BME280;4989;48.772;9.154;2022-07-23T04:21:51;98013.63;;;23.73;69.65
18850;BME280;4989;48.772;9.154;2022-07-23T04:26:53;98015.47;;;23.37;72.08
18850;BME280;4989;48.772;9.154;2022-07-23T04:31:55;98016.97;;;23.44;72.27
18850;BME280;4989;48.772;9.154;2022-07-23T04:36:58;98023.78;;;23.31;73.23
18850;BME280;4989;48.772;9.154;2022-07-23T04:42:01;98009.72;;;23.18;73.78
18850;BME280;4989;48.772;9.154;2022-07-23T04:47:05;98008.94;;;23.23;72.99
18850;BME280;4989;48.772;9.154;2022-07-23T04:52:07;98009.19;;;23.25;73.14
18850;BME280;4989;48.772;9.154;2022-07-23T04:57:10;98015.00;;;23.27;72.84
18850;BME280;4989;48.772;9.154;2022-07-23T05:02:12;98023.06;;;23.25;72.99
18850;BME280;4989;48.772;9.154;2022-07-23T05:07:14;98020.28;;;23.25;72.49
18850;BME280;4989;48.772;9.154;2022-07-23T05:12:16;98004.09;;;23.41;71.85
18850;BME280;4989;48.772;9.154;2022-07-23T05:17:19;98030.88;;;23.21;73.06
18850;BME280;4989;48.772;9.154;2022-07-23T05:22:21;98021.78;;;23.26;73.30
18850;BME280;4989;48.772;9.154;2022-07-23T05:27:23;98021.22;;;23.45;71.74
18850;BME280;4989;48.772;9.154;2022-07-23T05:32:26;98038.41;;;23.49;72.30
18850;BME280;4989;48.772;9.154;2022-07-23T05:37:39;98042.13;;;23.63;71.10
18850;BME280;4989;48.772;9.154;2022-07-23T05:42:41;98043.41;;;23.56;71.84
18850;BME280;4989;48.772;9.154;2022-07-23T05:47:47;98056.28;;;23.70;71.08
18850;BME280;4989;48.772;9.154;2022-07-23T05:52:59;98070.03;;;24.04;70.88
18850;BME280;4989;48.772;9.154;2022-07-23T05:58:27;98068.09;;;24.82;68.00
18850;BME280;4989;48.772;9.154;2022-07-23T06:03:29;98074.59;;;25.26;67.28
18850;BME280;4989;48.772;9.154;2022-07-23T06:08:32;98072.06;;;25.52;65.92
18850;BME280;4989;48.772;9.154;2022-07-23T06:13:35;98057.97;;;25.69;63.99
18850;BME280;4989;48.772;9.154;2022-07-23T06:18:38;98047.34;;;25.92;62.27
18850;BME280;4989;48.772;9.154;2022-07-23T06:23:42;98041.78;;;25.92;62.60
18850;BME280;4989;48.772;9.154;2022-07-23T06:28:44;98051.13;;;26.14;61.63
18850;BME280;4989;48.772;9.154;2022-07-23T06:33:47;98070.13;;;26.34;62.86
18850;BME280;4989;48.772;9.154;2022-07-23T06:38:49;98079.69;;;26.39;62.99
18850;BME280;4989;48.772;9.154;2022-07-23T06:43:53;98081.69;;;26.38;61.49
18850;BME280;4989;48.772;9.154;2022-07-23T06:48:56;98088.19;;;26.46;62.29
18850;BME280;4989;48.772;9.154;2022-07-23T06:53:59;98099.72;;;26.37;62.98
18850;BME280;4989;48.772;9.154;2022-07-23T06:59:02;98096.94;;;26.37;62.67
18850;BME280;4989;48.772;9.154;2022-07-23T07:04:05;98105.97;;;26.24;63.63
18850;BME280;4989;48.772;9.154;2022-07-23T07:09:08;98125.25;;;26.22;63.25
18850;BME280;4989;48.772;9.154;2022-07-23T07:14:10;98129.84;;;26.20;63.24
18850;BME280;4989;48.772;9.154;2022-07-23T07:19:12;98113.47;;;26.11;63.18
18850;BME280;4989;48.772;9.154;2022-07-23T07:24:14;98084.84;;;25.91;63.45
18850;BME280;4989;48.772;9.154;2022-07-23T07:29:17;98113.44;;;25.92;62.83
18850;BME280;4989;48.772;9.154;2022-07-23T07:34:19;98108.50;;;26.03;63.05
18850;BME280;4989;48.772;9.154;2022-07-23T07:39:21;98119.53;;;26.15;63.00
18850;BME280;4989;48.772;9.154;2022-07-23T07:44:23;98138.38;;;26.46;62.55
18850;BME280;4989;48.772;9.154;2022-07-23T07:49:25;98151.66;;;26.97;60.94
18850;BME280;4989;48.772;9.154;2022-07-23T07:54:33;98171.88;;;27.03;60.69
18850;BME280;4989;48.772;9.154;2022-07-23T07:59:37;98176.22;;;27.36;59.27
18850;BME280;4989;48.772;9.154;2022-07-23T08:04:40;98179.84;;;27.31;59.33
18850;BME280;4989;48.772;9.154;2022-07-23T08:09:42;98190.16;;;27.36;58.90
18850;BME280;4989;48.772;9.154;2022-07-23T08:14:44;98192.06;;;28.06;56.62
18850;BME280;4989;48.772;9.154;2022-07-23T08:19:46;98182.78;;;27.20;59.01
18850;BME280;4989;48.772;9.154;2022-07-23T08:24:49;98170.22;;;26.94;60.32
18850;BME280;4989;48.772;9.154;2022-07-23T08:29:51;98168.56;;;26.67;60.20
18850;BME280;4989;48.772;9.154;2022-07-23T08:34:53;98161.75;;;26.43;59.46
18850;BME280;4989;48.772;9.154;2022-07-23T08:39:55;98162.50;;;27.01;57.34
18850;BME280;4989;48.772;9.154;2022-07-23T08:44:58;98164.84;;;27.93;55.78
18850;BME280;4989;48.772;9.154;2022-07-23T08:50:01;98171.28;;;28.28;54.81
18850;BME280;4989;48.772;9.154;2022-07-23T08:55:06;98172.72;;;29.16;51.19
18850;BME280;4989;48.772;9.154;2022-07-23T09:00:10;98170.41;;;29.91;49.43
18850;BME280;4989;48.772;9.154;2022-07-23T09:05:13;98173.09;;;29.76;48.85
18850;BME280;4989;48.772;9.154;2022-07-23T09:10:16;98161.59;;;30.96;46.26
18850;BME280;4989;48.772;9.154;2022-07-23T09:15:18;98155.28;;;31.64;43.42
18850;BME280;4989;48.772;9.154;2022-07-23T09:20:21;98158.31;;;31.89;43.92
18850;BME280;4989;48.772;9.154;2022-07-23T09:25:23;98151.16;;;31.58;43.73
18850;BME280;4989;48.772;9.154;2022-07-23T09:30:27;98142.13;;;31.13;47.29
18850;BME280;4989;48.772;9.154;2022-07-23T09:35:51;98142.72;;;31.27;44.90
18850;BME280;4989;48.772;9.154;2022-07-23T09:41:08;98140.84;;;32.62;44.48
18850;BME280;4989;48.772;9.154;2022-07-23T09:46:27;98133.66;;;32.69;44.23
18850;BME280;4989;48.772;9.154;2022-07-23T09:51:30;98132.28;;;32.45;42.07
18850;BME280;4989;48.772;9.154;2022-07-23T09:56:39;98138.13;;;33.12;43.55
18850;BME280;4989;48.772;9.154;2022-07-23T10:01:44;98136.03;;;34.23;39.74
18850;BME280;4989;48.772;9.154;2022-07-23T10:06:48;98125.59;;;35.04;38.29
18850;BME280;4989;48.772;9.154;2022-07-23T10:12:13;98129.97;;;34.71;41.18
18850;BME280;4989;48.772;9.154;2022-07-23T10:17:29;98137.03;;;34.17;41.67
18850;BME280;4989;48.772;9.154;2022-07-23T10:22:38;98128.84;;;33.69;42.55
18850;BME280;4989;48.772;9.154;2022-07-23T10:27:51;98139.53;;;33.28;43.50
18850;BME280;4989;48.772;9.154;2022-07-23T10:38:55;98138.41;;;33.49;42.37
18850;BME280;4989;48.772;9.154;2022-07-23T10:44:19;98133.25;;;33.38;43.01
18850;BME280;4989;48.772;9.154;2022-07-23T10:49:25;98120.03;;;34.52;40.23
18850;BME280;4989;48.772;9.154;2022-07-23T10:54:30;98128.56;;;35.06;39.86
18850;BME280;4989;48.772;9.154;2022-07-23T11:05:22;98119.75;;;35.02;39.60
18850;BME280;4989;48.772;9.154;2022-07-23T11:10:48;98124.25;;;34.16;40.67
18850;BME280;4989;48.772;9.154;2022-07-23T11:31:58;98113.63;;;32.09;43.05
18850;BME280;4989;48.772;9.154;2022-07-23T11:37:08;98115.94;;;31.11;46.43
18850;BME280;4989;48.772;9.154;2022-07-23T11:42:18;98123.34;;;32.15;44.38
18850;BME280;4989;48.772;9.154;2022-07-23T11:47:23;98119.06;;;34.40;40.84
18850;BME280;4989;48.772;9.154;2022-07-23T11:52:27;98118.31;;;34.39;40.28
18850;BME280;4989;48.772;9.154;2022-07-23T11:57:35;98112.25;;;36.49;36.42
18850;BME280;4989;48.772;9.154;2022-07-23T12:02:39;98105.31;;;36.20;37.41
18850;BME280;4989;48.772;9.154;2022-07-23T12:07:43;98110.84;;;35.43;37.06
18850;BME280;4989;48.772;9.154;2022-07-23T12:12:51;98106.28;;;35.67;39.07
18850;BME280;4989;48.772;9.154;2022-07-23T12:17:54;98103.16;;;34.17;40.66
18850;BME280;4989;48.772;9.154;2022-07-23T12:22:59;98106.16;;;32.84;43.02
18850;BME280;4989;48.772;9.154;2022-07-23T12:28:13;98096.38;;;34.48;38.22
18850;BME280;4989;48.772;9.154;2022-07-23T12:38:25;98084.97;;;35.09;39.67
18850;BME280;4989;48.772;9.154;2022-07-23T12:43:30;98091.38;;;35.10;39.88
18850;BME280;4989;48.772;9.154;2022-07-23T12:48:34;98106.84;;;33.50;42.40
18850;BME280;4989;48.772;9.154;2022-07-23T12:58:58;98103.63;;;34.41;41.01
18850;BME280;4989;48.772;9.154;2022-07-23T13:09:20;98108.97;;;34.19;40.98
18850;BME280;4989;48.772;9.154;2022-07-23T13:14:23;98116.91;;;34.31;40.28
18850;BME280;4989;48.772;9.154;2022-07-23T13:19:28;98109.22;;;34.76;40.04
18850;BME280;4989;48.772;9.154;2022-07-23T13:24:31;98112.84;;;35.60;38.55
18850;BME280;4989;48.772;9.154;2022-07-23T13:29:33;98109.78;;;33.95;41.31
18850;BME280;4989;48.772;9.154;2022-07-23T13:34:37;98105.38;;;35.54;38.01
18850;BME280;4989;48.772;9.154;2022-07-23T13:39:42;98109.53;;;35.53;38.09
18850;BME280;4989;48.772;9.154;2022-07-23T13:44:44;98111.81;;;35.28;38.63
18850;BME280;4989;48.772;9.154;2022-07-23T13:49:47;98102.78;;;34.65;39.43
18850;BME280;4989;48.772;9.154;2022-07-23T13:54:49;98094.41;;;35.97;37.34
18850;BME280;4989;48.772;9.154;2022-07-23T13:59:52;98101.41;;;35.96;37.59
18850;BME280;4989;48.772;9.154;2022-07-23T14:04:55;98085.56;;;36.61;34.52
18850;BME280;4989;48.772;9.154;2022-07-23T14:09:59;98081.31;;;36.12;35.68
18850;BME280;4989;48.772;9.154;2022-07-23T14:15:03;98086.06;;;34.87;39.47
18850;BME280;4989;48.772;9.154;2022-07-23T14:20:14;98084.22;;;34.28;40.64
18850;BME280;4989;48.772;9.154;2022-07-23T14:25:17;98076.97;;;35.16;38.79
18850;BME280;4989;48.772;9.154;2022-07-23T14:30:20;98079.81;;;35.72;34.51
18850;BME280;4989;48.772;9.154;2022-07-23T14:35:24;98080.00;;;34.02;40.87
18850;BME280;4989;48.772;9.154;2022-07-23T14:40:27;98079.97;;;33.67;41.42
18850;BME280;4989;48.772;9.154;2022-07-23T14:45:30;98078.91;;;33.62;42.16
18850;BME280;4989;48.772;9.154;2022-07-23T14:50:33;98073.88;;;33.36;42.08
18850;BME280;4989;48.772;9.154;2022-07-23T14:55:35;98068.47;;;33.90;42.40
18850;BME280;4989;48.772;9.154;2022-07-23T15:00:38;98067.34;;;33.08;43.16
18850;BME280;4989;48.772;9.154;2022-07-23T15:05:41;98071.56;;;32.92;42.95
18850;BME280;4989;48.772;9.154;2022-07-23T15:10:44;98067.06;;;32.23;44.97
18850;BME280;4989;48.772;9.154;2022-07-23T15:15:46;98067.56;;;31.74;45.82
18850;BME280;4989;48.772;9.154;2022-07-23T15:20:52;98074.31;;;31.78;44.81
18850;BME280;4989;48.772;9.154;2022-07-23T15:25:56;98078.00;;;31.88;44.51
18850;BME280;4989;48.772;9.154;2022-07-23T15:30:58;98074.91;;;31.54;45.46
18850;BME280;4989;48.772;9.154;2022-07-23T15:36:02;98067.78;;;31.07;45.84
18850;BME280;4989;48.772;9.154;2022-07-23T15:41:04;98065.72;;;31.07;46.31
18850;BME280;4989;48.772;9.154;2022-07-23T15:46:07;98076.06;;;30.45;46.81
18850;BME280;4989;48.772;9.154;2022-07-23T15:51:10;98072.44;;;30.81;46.76
18850;BME280;4989;48.772;9.154;2022-07-23T15:56:12;98067.44;;;30.35;47.58
18850;BME280;4989;48.772;9.154;2022-07-23T16:01:18;98060.94;;;30.04;48.94
18850;BME280;4989;48.772;9.154;2022-07-23T16:06:20;98057.66;;;29.85;48.61
18850;BME280;4989;48.772;9.154;2022-07-23T16:11:23;98060.56;;;29.43;50.54
18850;BME280;4989;48.772;9.154;2022-07-23T16:16:26;98067.69;;;29.73;49.43
18850;BME280;4989;48.772;9.154;2022-07-23T16:21:29;98057.28;;;29.81;48.63
18850;BME280;4989;48.772;9.154;2022-07-23T16:26:31;98071.44;;;30.11;48.12
18850;BME280;4989;48.772;9.154;2022-07-23T16:31:34;98068.91;;;29.35;50.17
18850;BME280;4989;48.772;9.154;2022-07-23T16:36:36;98083.19;;;29.24;50.09
18850;BME280;4989;48.772;9.154;2022-07-23T16:41:40;98080.94;;;28.81;51.99
18850;BME280;4989;48.772;9.154;2022-07-23T16:46:43;98090.16;;;29.10;51.19
18850;BME280;4989;48.772;9.154;2022-07-23T16:51:45;98094.34;;;29.16;50.58
18850;BME280;4989;48.772;9.154;2022-07-23T16:56:48;98097.59;;;29.28;50.72
18850;BME280;4989;48.772;9.154;2022-07-23T17:01:50;98097.47;;;29.34;50.26
18850;BME280;4989;48.772;9.154;2022-07-23T17:06:53;98102.06;;;29.24;50.70
18850;BME280;4989;48.772;9.154;2022-07-23T17:11:56;98105.25;;;29.28;51.50
18850;BME280;4989;48.772;9.154;2022-07-23T17:16:59;98114.00;;;29.03;51.79
18850;BME280;4989;48.772;9.154;2022-07-23T17:22:02;98110.34;;;29.08;51.79
18850;BME280;4989;48.772;9.154;2022-07-23T17:27:05;98113.56;;;28.99;51.98
18850;BME280;4989;48.772;9.154;2022-07-23T17:32:09;98114.00;;;29.03;52.50
18850;BME280;4989;48.772;9.154;2022-07-23T17:37:11;98115.50;;;29.04;52.29
18850;BME280;4989;48.772;9.154;2022-07-23T17:42:14;98115.31;;;28.89;52.82
18850;BME280;4989;48.772;9.154;2022-07-23T17:47:17;98109.22;;;28.77;52.79
18850;BME280;4989;48.772;9.154;2022-07-23T17:52:19;98110.66;;;28.70;53.09
18850;BME280;4989;48.772;9.154;2022-07-23T17:57:21;98120.34;;;28.69;53.37
18850;BME280;4989;48.772;9.154;2022-07-23T18:02:24;98122.47;;;28.76;54.19
18850;BME280;4989;48.772;9.154;2022-07-23T18:07:27;98131.03;;;28.58;54.61
18850;BME280;4989;48.772;9.154;2022-07-23T18:12:29;98124.88;;;28.59;54.42
18850;BME280;4989;48.772;9.154;2022-07-23T18:17:33;98126.97;;;28.32;55.36
18850;BME280;4989;48.772;9.154;2022-07-23T18:22:36;98138.38;;;28.47;55.32
18850;BME280;4989;48.772;9.154;2022-07-23T18:27:39;98146.88;;;28.55;56.31
18850;BME280;4989;48.772;9.154;2022-07-23T18:32:41;98158.28;;;28.57;55.96
18850;BME280;4989;48.772;9.154;2022-07-23T18:37:44;98154.59;;;28.62;56.36
18850;BME280;4989;48.772;9.154;2022-07-23T18:42:46;98162.78;;;28.60;56.25
18850;BME280;4989;48.772;9.154;2022-07-23T18:47:49;98173.78;;;28.45;57.03
18850;BME280;4989;48.772;9.154;2022-07-23T18:52:53;98182.59;;;28.49;56.60
18850;BME280;4989;48.772;9.154;2022-07-23T18:57:55;98178.72;;;28.52;56.50
18850;BME280;4989;48.772;9.154;2022-07-23T19:03:05;98192.69;;;28.52;56.55
18850;BME280;4989;48.772;9.154;2022-07-23T19:08:09;98189.50;;;28.48;56.59
18850;BME280;4989;48.772;9.154;2022-07-23T19:13:11;98194.63;;;28.44;56.71
18850;BME280;4989;48.772;9.154;2022-07-23T19:18:14;98199.47;;;28.43;56.68
18850;BME280;4989;48.772;9.154;2022-07-23T19:23:16;98205.81;;;28.44;56.51
18850;BME280;4989;48.772;9.154;2022-07-23T19:28:19;98201.75;;;28.45;56.91
18850;BME280;4989;48.772;9.154;2022-07-23T19:33:21;98209.94;;;28.43;56.87
18850;BME280;4989;48.772;9.154;2022-07-23T19:38:24;98210.44;;;28.41;56.83
18850;BME280;4989;48.772;9.154;2022-07-23T19:43:27;98220.03;;;28.46;56.64
18850;BME280;4989;48.772;9.154;2022-07-23T19:48:29;98227.13;;;28.47;56.60
18850;BME280;4989;48.772;9.154;2022-07-23T19:53:32;98229.41;;;28.48;56.60
18850;BME280;4989;48.772;9.154;2022-07-23T19:58:35;98230.47;;;28.45;56.48
18850;BME280;4989;48.772;9.154;2022-07-23T20:03:37;98237.00;;;28.35;57.74
18850;BME280;4989;48.772;9.154;2022-07-23T20:08:40;98241.53;;;28.24;57.35
18850;BME280;4989;48.772;9.154;2022-07-23T20:13:42;98247.00;;;28.17;57.70
18850;BME280;4989;48.772;9.154;2022-07-23T20:18:45;98251.22;;;28.23;57.55
18850;BME280;4989;48.772;9.154;2022-07-23T20:23:48;98243.34;;;28.22;56.83
18850;BME280;4989;48.772;9.154;2022-07-23T20:28:51;98258.81;;;28.09;57.11
18850;BME280;4989;48.772;9.154;2022-07-23T20:33:53;98264.25;;;27.89;58.26
18850;BME280;4989;48.772;9.154;2022-07-23T20:38:56;98268.25;;;27.93;58.12
18850;BME280;4989;48.772;9.154;2022-07-23T20:43:58;98264.28;;;28.02;57.55
18850;BME280;4989;48.772;9.154;2022-07-23T20:49:01;98269.34;;;28.17;58.74
18850;BME280;4989;48.772;9.154;2022-07-23T20:54:05;98272.69;;;28.15;59.31
18850;BME280;4989;48.772;9.154;2022-07-23T20:59:07;98280.19;;;28.07;59.84
18850;BME280;4989;48.772;9.154;2022-07-23T21:04:10;98281.16;;;27.96;60.29
18850;BME280;4989;48.772;9.154;2022-07-23T21:09:12;98278.88;;;27.95;60.44
18850;BME280;4989;48.772;9.154;2022-07-23T21:14:15;98277.72;;;27.90;60.37
18850;BME280;4989;48.772;9.154;2022-07-23T21:19:17;98283.59;;;27.86;58.97
18850;BME280;4989;48.772;9.154;2022-07-23T21:24:20;98285.22;;;27.63;61.17
18850;BME280;4989;48.772;9.154;2022-07-23T21:29:22;98280.75;;;27.73;59.23
18850;BME280;4989;48.772;9.154;2022-07-23T21:34:28;98275.50;;;27.51;58.74
18850;BME280;4989;48.772;9.154;2022-07-23T21:39:31;98281.59;;;27.49;59.40
18850;BME280;4989;48.772;9.154;2022-07-23T21:44:34;98281.38;;;27.66;59.90
18850;BME280;4989;48.772;9.154;2022-07-23T21:49:40;98285.16;;;27.69;60.81
18850;BME280;4989;48.772;9.154;2022-07-23T21:54:42;98288.31;;;27.59;61.30
18850;BME280;4989;48.772;9.154;2022-07-23T21:59:45;98288.03;;;27.44;60.22
18850;BME280;4989;48.772;9.154;2022-07-23T22:04:51;98290.53;;;27.48;61.78
18850;BME280;4989;48.772;9.154;2022-07-23T22:09:54;98292.25;;;27.51;62.25
18850;BME280;4989;48.772;9.154;2022-07-23T22:15:07;98295.66;;;27.44;62.20
18850;BME280;4989;48.772;9.154;2022-07-23T22:20:10;98296.50;;;27.38;62.07
18850;BME280;4989;48.772;9.154;2022-07-23T22:25:13;98290.75;;;27.31;62.77
18850;BME280;4989;48.772;9.154;2022-07-23T22:30:18;98294.53;;;27.33;62.47
18850;BME280;4989;48.772;9.154;2022-07-23T22:35:21;98288.50;;;27.29;62.36
18850;BME280;4989;48.772;9.154;2022-07-23T22:40:23;98291.28;;;27.29;62.44
18850;BME280;4989;48.772;9.154;2022-07-23T22:45:26;98288.03;;;27.25;62.29
18850;BME280;4989;48.772;9.154;2022-07-23T22:50:28;98288.13;;;27.20;62.42
18850;BME280;4989;48.772;9.154;2022-07-23T22:55:31;98289.00;;;27.09;62.92
18850;BME280;4989;48.772;9.154;2022-07-23T23:00:38;98285.16;;;27.12;62.33
18850;BME280;4989;48.772;9.154;2022-07-23T23:05:40;98276.78;;;27.12;64.21
18850;BME280;4989;48.772;9.154;2022-07-23T23:10:43;98285.22;;;27.06;63.84
18850;BME280;4989;48.772;9.154;2022-07-23T23:15:46;98287.41;;;26.94;63.74
18850;BME280;4989;48.772;9.154;2022-07-23T23:20:49;98284.69;;;26.89;64.29
18850;BME280;4989;48.772;9.154;2022-07-23T23:25:51;98285.97;;;26.88;62.52
18850;BME280;4989;48.772;9.154;2022-07-23T23:30:54;98290.56;;;26.85;62.91
18850;BME280;4989;48.772;9.154;2022-07-23T23:35:56;98289.75;;;26.90;63.72
18850;BME280;4989;48.772;9.154;2022-07-23T23:40:59;98281.22;;;26.83;64.36
18850;BME280;4989;48.772;9.154;2022-07-23T23:46:01;98287.53;;;26.83;63.50
18850;BME280;4989;48.772;9.154;2022-07-23T23:51:04;98286.03;;;26.82;63.54
18850;BME280;4989;48.772;9.154;2022-07-23T23:56:07;98290.63;;;26.80;62.67
